createdAt,value
2022-10-20T00:03:34.500Z,10.40
2022-10-20T00:08:58.730Z,8.83
2022-10-20T00:14:22.422Z,8.13
2022-10-20T00:19:45.151Z,9.33
2022-10-20T00:25:07.292Z,7.92
2022-10-20T00:30:29.657Z,7.50
2022-10-20T00:35:52.694Z,7.10
2022-10-20T00:41:16.786Z,6.65
2022-10-20T00:46:47.788Z,7.20
2022-10-20T00:52:11.683Z,6.53
2022-10-20T00:57:35.178Z,7.70
2022-10-20T01:03:00.199Z,6.50
2022-10-20T01:08:22.423Z,7.80
2022-10-20T01:13:58.343Z,6.80
2022-10-20T01:19:54.783Z,6.95
2022-10-20T01:25:44.139Z,6.50
2022-10-20T01:31:13.651Z,7.85
2022-10-20T01:42:05.863Z,6.30
2022-10-20T01:47:29.612Z,6.28
2022-10-20T01:52:51.728Z,6.33
2022-10-20T01:58:45.940Z,6.85
2022-10-20T02:04:14.377Z,5.60
2022-10-20T02:09:47.057Z,6.72
2022-10-20T02:15:10.940Z,4.85
2022-10-20T02:20:34.823Z,5.17
2022-10-20T02:26:00.127Z,6.53
2022-10-20T02:31:23.884Z,5.72
2022-10-20T02:36:49.977Z,5.90
2022-10-20T02:42:12.761Z,5.42
2022-10-20T02:47:35.692Z,5.95
2022-10-20T02:52:58.253Z,4.35
2022-10-20T02:58:20.398Z,5.33
2022-10-20T03:03:42.541Z,4.85
2022-10-20T03:09:04.715Z,6.85
2022-10-20T03:14:26.955Z,6.67
2022-10-20T03:19:49.059Z,7.73
2022-10-20T03:25:11.417Z,7.83
2022-10-20T03:30:34.407Z,8.98
2022-10-20T03:35:56.519Z,6.62
2022-10-20T03:41:18.945Z,6.60
2022-10-20T03:46:41.053Z,5.67
2022-10-20T03:52:03.201Z,6.40
2022-10-20T03:57:26.511Z,7.47
2022-10-20T04:02:54.699Z,7.08
2022-10-20T04:08:16.892Z,6.17
2022-10-20T04:13:39.605Z,6.53
2022-10-20T04:19:02.690Z,5.92
2022-10-20T04:24:25.775Z,6.20
2022-10-20T04:29:48.015Z,5.95
2022-10-20T04:35:10.187Z,5.58
2022-10-20T04:40:32.969Z,5.33
2022-10-20T04:45:56.787Z,5.78
2022-10-20T04:51:22.374Z,5.95
2022-10-20T04:56:44.599Z,5.87
2022-10-20T05:02:06.854Z,6.20
2022-10-20T05:07:29.743Z,5.87
2022-10-20T05:12:51.867Z,5.22
2022-10-20T05:18:13.983Z,5.70
2022-10-20T05:23:36.553Z,7.53
2022-10-20T05:29:02.135Z,7.10
2022-10-20T05:34:25.475Z,8.10
2022-10-20T05:45:11.746Z,10.53
2022-10-20T05:50:33.925Z,10.65
2022-10-20T05:55:56.150Z,9.70
2022-10-20T06:01:49.403Z,9.63
2022-10-20T06:07:12.552Z,8.85
2022-10-20T06:12:34.855Z,9.28
2022-10-20T06:17:58.926Z,8.35
2022-10-20T06:23:21.070Z,7.53
2022-10-20T06:28:44.778Z,7.78
2022-10-20T06:34:07.525Z,8.43
2022-10-20T06:39:32.938Z,8.25
2022-10-20T06:44:56.932Z,7.37
2022-10-20T06:50:19.871Z,8.45
2022-10-20T06:55:42.015Z,8.08
2022-10-20T07:01:23.555Z,8.20
2022-10-20T07:06:52.682Z,9.40
2022-10-20T07:12:15.450Z,10.27
2022-10-20T07:17:37.601Z,10.60
2022-10-20T07:23:00.161Z,10.08
2022-10-20T07:28:22.728Z,9.90
2022-10-20T07:33:56.543Z,9.60
2022-10-20T07:39:14.717Z,12.23
2022-10-20T07:44:36.851Z,12.82
2022-10-20T07:49:59.995Z,11.12
2022-10-20T07:55:38.068Z,11.43
2022-10-20T08:00:46.506Z,11.35
2022-10-20T08:06:08.716Z,10.48
2022-10-20T08:11:31.890Z,10.20
2022-10-20T08:16:58.945Z,12.88
2022-10-20T08:22:21.109Z,13.55
2022-10-20T08:27:43.322Z,11.35
2022-10-20T08:33:07.631Z,14.45
2022-10-20T08:38:30.291Z,10.48
2022-10-20T08:43:55.795Z,11.70
2022-10-20T08:49:21.235Z,15.65
2022-10-20T08:54:45.273Z,12.58
2022-10-20T09:00:21.369Z,7.65
2022-10-20T09:05:47.495Z,5.58
2022-10-20T09:11:12.176Z,4.58
2022-10-20T09:16:58.851Z,5.75
2022-10-20T09:22:09.890Z,4.83
2022-10-20T09:27:43.313Z,4.37
2022-10-20T09:33:06.366Z,4.67
2022-10-20T09:38:39.400Z,4.37
2022-10-20T09:44:20.457Z,3.22
2022-10-20T09:49:46.099Z,2.92
2022-10-20T09:55:24.548Z,2.33
2022-10-20T10:00:53.331Z,1.90
2022-10-20T10:06:35.341Z,1.35
2022-10-20T10:11:59.190Z,1.85
2022-10-20T10:17:23.515Z,2.15
2022-10-20T10:22:48.970Z,2.70
2022-10-20T10:33:49.647Z,1.90
2022-10-20T10:39:14.966Z,2.80
2022-10-20T10:45:11.605Z,2.22
2022-10-20T10:50:58.625Z,1.65
2022-10-20T10:56:37.336Z,1.47
2022-10-20T11:02:28.134Z,1.40
2022-10-20T11:08:01.459Z,1.65
2022-10-20T11:13:52.158Z,1.75
2022-10-20T11:19:54.774Z,1.50
2022-10-20T11:25:38.031Z,1.10
2022-10-20T11:31:00.386Z,1.27
2022-10-20T11:36:25.872Z,1.20
2022-10-20T11:42:01.139Z,1.33
2022-10-20T11:47:28.328Z,1.77
2022-10-20T11:53:43.805Z,2.00
2022-10-20T11:59:32.041Z,2.40
2022-10-20T12:05:47.355Z,2.90
2022-10-20T12:11:25.145Z,3.50
2022-10-20T12:17:12.674Z,3.67
2022-10-20T12:22:45.355Z,3.65
2022-10-20T12:34:17.240Z,4.40
2022-10-20T12:39:41.960Z,4.00
2022-10-20T12:45:06.928Z,3.40
2022-10-20T12:50:50.387Z,2.03
2022-10-20T12:56:28.003Z,1.90
2022-10-20T13:02:19.256Z,1.53
2022-10-20T13:08:04.686Z,1.30
2022-10-20T13:19:00.462Z,1.20
2022-10-20T13:24:44.810Z,1.20
2022-10-20T13:30:05.928Z,1.53
2022-10-20T13:35:35.217Z,1.25
2022-10-20T13:41:23.822Z,1.40
2022-10-20T13:52:50.763Z,1.17
2022-10-20T13:58:20.772Z,1.30
2022-10-20T14:03:48.389Z,1.40
2022-10-20T14:09:18.994Z,1.20
2022-10-20T14:14:43.965Z,1.60
2022-10-20T14:20:18.143Z,1.70
2022-10-20T14:25:42.230Z,1.62
2022-10-20T14:31:16.790Z,2.00
2022-10-20T14:36:46.057Z,2.43
2022-10-20T14:42:10.416Z,2.40
2022-10-20T14:47:39.473Z,2.10
2022-10-20T14:53:01.933Z,6.43
2022-10-20T14:58:47.970Z,2.40
2022-10-20T15:04:33.466Z,1.87
2022-10-20T15:10:08.682Z,1.53
2022-10-20T15:15:43.620Z,9.47
2022-10-20T15:21:12.189Z,2.83
2022-10-20T15:26:34.624Z,2.22
2022-10-20T15:31:57.026Z,2.10
2022-10-20T15:37:19.358Z,2.17
2022-10-20T15:42:41.679Z,27.02
2022-10-20T15:48:03.932Z,3.37
2022-10-20T15:53:26.295Z,3.12
2022-10-20T15:58:50.235Z,3.27
2022-10-20T16:04:27.844Z,3.40
2022-10-20T16:09:50.341Z,4.25
2022-10-20T16:15:12.926Z,3.92
2022-10-20T16:20:35.374Z,3.70
2022-10-20T16:26:01.023Z,4.77
2022-10-20T16:31:30.536Z,5.47
2022-10-20T16:36:52.840Z,5.50
2022-10-20T16:42:15.220Z,5.03
2022-10-20T16:47:38.996Z,10.97
2022-10-20T16:53:02.363Z,6.42
2022-10-20T16:58:25.074Z,7.22
2022-10-20T17:03:49.138Z,9.13
2022-10-20T17:09:12.634Z,9.70
2022-10-20T17:14:35.507Z,8.65
2022-10-20T17:19:57.828Z,8.20
2022-10-20T17:25:21.209Z,8.28
2022-10-20T17:30:45.216Z,7.73
2022-10-20T17:36:08.787Z,7.17
2022-10-20T17:41:32.526Z,6.53
2022-10-20T17:46:55.546Z,13.40
2022-10-20T17:52:17.941Z,9.80
2022-10-20T17:57:42.173Z,7.85
2022-10-20T18:03:08.433Z,6.97
2022-10-20T18:08:31.314Z,8.00
2022-10-20T18:13:54.256Z,8.70
2022-10-20T18:19:20.080Z,8.85
2022-10-20T18:24:43.434Z,10.38
2022-10-20T18:30:05.734Z,11.45
2022-10-20T18:35:28.992Z,10.30
2022-10-20T18:40:53.077Z,9.53
2022-10-20T18:46:16.433Z,9.03
2022-10-20T18:51:39.440Z,8.98
2022-10-20T18:57:03.638Z,10.10
2022-10-20T19:02:29.005Z,11.12
2022-10-20T19:07:51.838Z,10.80
2022-10-20T19:13:16.094Z,11.30
2022-10-20T19:18:43.273Z,11.83
2022-10-20T19:24:16.081Z,11.55
2022-10-20T19:29:38.795Z,11.13
2022-10-20T19:35:02.232Z,12.40
2022-10-20T19:40:27.644Z,13.27
2022-10-20T19:45:49.906Z,14.30
2022-10-20T19:51:12.994Z,13.47
2022-10-20T19:56:35.846Z,32.33
2022-10-20T20:01:58.808Z,16.12
2022-10-20T20:07:21.564Z,16.30
2022-10-20T20:12:43.861Z,17.63
2022-10-20T20:18:06.556Z,18.40
2022-10-20T20:23:40.761Z,17.92
2022-10-20T20:28:54.484Z,17.00
2022-10-20T20:34:17.000Z,16.00
2022-10-20T20:39:39.923Z,15.78
2022-10-20T20:45:03.163Z,15.97
2022-10-20T20:50:26.047Z,15.58
2022-10-20T20:55:48.355Z,15.28
2022-10-20T21:01:22.610Z,14.53
2022-10-20T21:07:01.738Z,15.15
2022-10-20T21:17:33.154Z,17.07
2022-10-20T21:22:55.881Z,17.52
2022-10-20T21:28:18.202Z,18.33
2022-10-20T21:33:41.221Z,20.32
2022-10-20T21:39:04.719Z,20.23
2022-10-20T21:44:28.219Z,21.97
2022-10-20T21:49:50.497Z,20.70
2022-10-20T21:55:13.351Z,21.03
2022-10-20T22:00:36.113Z,21.73
2022-10-20T22:05:59.148Z,20.17
2022-10-20T22:11:26.264Z,20.92
2022-10-20T22:16:51.989Z,20.35
2022-10-20T22:22:14.454Z,20.17
2022-10-20T22:27:42.312Z,18.65
2022-10-20T22:33:00.860Z,18.23
2022-10-20T22:38:23.197Z,15.87
2022-10-20T22:43:46.646Z,16.13
2022-10-20T22:49:09.049Z,14.87
2022-10-20T22:54:31.459Z,14.63
2022-10-20T22:59:53.904Z,14.40
2022-10-20T23:05:16.285Z,12.33
2022-10-20T23:10:38.628Z,12.95
2022-10-20T23:16:03.255Z,14.03
2022-10-20T23:21:26.814Z,13.03
2022-10-20T23:26:49.064Z,15.00
2022-10-20T23:32:11.288Z,14.25
2022-10-20T23:37:33.432Z,13.70
2022-10-20T23:42:55.655Z,13.70
2022-10-20T23:48:17.806Z,12.55
2022-10-20T23:53:40.303Z,11.65
2022-10-20T23:59:02.468Z,11.73
